sensor_id;sensor_type;location;lat;lon;timestamp;P1;durP1;ratioP1;P2;durP2;ratioP2
6197;SDS011;3132;42.622;23.328;2024-03-23T00:54:14;12.10;;;11.20;;
6197;SDS011;3132;42.622;23.328;2024-03-23T00:56:40;10.80;;;10.00;;
6197;SDS011;3132;42.622;23.328;2024-03-23T00:59:05;11.77;;;11.03;;
6197;SDS011;3132;42.622;23.328;2024-03-23T01:01:30;11.97;;;11.03;;
6197;SDS011;3132;42.622;23.328;2024-03-23T01:03:56;11.73;;;11.00;;
6197;SDS011;3132;42.622;23.328;2024-03-23T01:06:21;11.90;;;11.03;;
6197;SDS011;3132;42.622;23.328;2024-03-23T01:08:46;11.27;;;10.37;;
6197;SDS011;3132;42.622;23.328;2024-03-23T01:11:12;10.33;;;9.57;;
6197;SDS011;3132;42.622;23.328;2024-03-23T01:13:37;10.43;;;9.83;;
6197;SDS011;3132;42.622;23.328;2024-03-23T01:16:02;11.40;;;10.67;;
6197;SDS011;3132;42.622;23.328;2024-03-23T01:18:28;11.67;;;10.97;;
6197;SDS011;3132;42.622;23.328;2024-03-23T01:20:54;10.77;;;10.20;;
6197;SDS011;3132;42.622;23.328;2024-03-23T01:23:19;11.23;;;10.63;;
6197;SDS011;3132;42.622;23.328;2024-03-23T01:25:51;10.73;;;10.23;;
6197;SDS011;3132;42.622;23.328;2024-03-23T01:28:17;10.87;;;10.30;;
6197;SDS011;3132;42.622;23.328;2024-03-23T01:30:42;11.10;;;10.50;;
6197;SDS011;3132;42.622;23.328;2024-03-23T01:33:07;11.97;;;11.23;;
6197;SDS011;3132;42.622;23.328;2024-03-23T01:35:33;10.87;;;10.03;;
6197;SDS011;3132;42.622;23.328;2024-03-23T01:37:58;11.07;;;10.47;;
6197;SDS011;3132;42.622;23.328;2024-03-23T01:40:23;10.27;;;9.57;;
6197;SDS011;3132;42.622;23.328;2024-03-23T01:45:43;11.47;;;10.67;;
6197;SDS011;3132;42.622;23.328;2024-03-23T01:48:09;11.50;;;10.80;;
6197;SDS011;3132;42.622;23.328;2024-03-23T01:50:36;10.57;;;10.03;;
6197;SDS011;3132;42.622;23.328;2024-03-23T01:53:02;10.83;;;9.93;;
6197;SDS011;3132;42.622;23.328;2024-03-23T01:55:30;10.83;;;10.13;;
6197;SDS011;3132;42.622;23.328;2024-03-23T01:57:57;10.83;;;10.13;;
6197;SDS011;3132;42.622;23.328;2024-03-23T02:00:22;10.93;;;10.37;;
6197;SDS011;3132;42.622;23.328;2024-03-23T02:02:48;11.50;;;10.80;;
6197;SDS011;3132;42.622;23.328;2024-03-23T02:05:13;11.43;;;10.73;;
6197;SDS011;3132;42.622;23.328;2024-03-23T02:07:39;12.07;;;11.20;;
6197;SDS011;3132;42.622;23.328;2024-03-23T02:10:06;11.73;;;11.13;;
6197;SDS011;3132;42.622;23.328;2024-03-23T02:12:32;11.37;;;10.67;;
6197;SDS011;3132;42.622;23.328;2024-03-23T02:14:57;11.87;;;11.07;;
6197;SDS011;3132;42.622;23.328;2024-03-23T02:17:23;12.43;;;11.47;;
6197;SDS011;3132;42.622;23.328;2024-03-23T02:19:48;12.27;;;11.60;;
6197;SDS011;3132;42.622;23.328;2024-03-23T02:22:13;11.23;;;10.63;;
6197;SDS011;3132;42.622;23.328;2024-03-23T02:24:40;11.83;;;10.87;;
6197;SDS011;3132;42.622;23.328;2024-03-23T02:27:06;11.97;;;11.37;;
6197;SDS011;3132;42.622;23.328;2024-03-23T02:29:31;11.27;;;10.53;;
6197;SDS011;3132;42.622;23.328;2024-03-23T02:31:56;11.33;;;10.73;;
6197;SDS011;3132;42.622;23.328;2024-03-23T02:34:23;9.83;;;9.30;;
6197;SDS011;3132;42.622;23.328;2024-03-23T02:36:49;10.13;;;9.63;;
6197;SDS011;3132;42.622;23.328;2024-03-23T02:39:14;11.60;;;10.90;;
6197;SDS011;3132;42.622;23.328;2024-03-23T02:41:40;11.53;;;10.70;;
6197;SDS011;3132;42.622;23.328;2024-03-23T02:44:05;11.23;;;10.23;;
6197;SDS011;3132;42.622;23.328;2024-03-23T02:46:30;10.27;;;9.77;;
6197;SDS011;3132;42.622;23.328;2024-03-23T02:48:56;11.80;;;10.83;;
6197;SDS011;3132;42.622;23.328;2024-03-23T02:51:21;12.37;;;11.57;;
6197;SDS011;3132;42.622;23.328;2024-03-23T02:53:47;12.53;;;11.63;;
6197;SDS011;3132;42.622;23.328;2024-03-23T02:56:12;12.83;;;11.97;;
6197;SDS011;3132;42.622;23.328;2024-03-23T02:58:41;13.27;;;12.17;;
6197;SDS011;3132;42.622;23.328;2024-03-23T03:01:06;12.50;;;11.70;;
6197;SDS011;3132;42.622;23.328;2024-03-23T03:03:32;13.27;;;12.37;;
6197;SDS011;3132;42.622;23.328;2024-03-23T03:05:57;12.23;;;11.33;;
6197;SDS011;3132;42.622;23.328;2024-03-23T03:08:23;13.30;;;12.20;;
6197;SDS011;3132;42.622;23.328;2024-03-23T03:10:48;13.50;;;12.50;;
6197;SDS011;3132;42.622;23.328;2024-03-23T03:13:13;13.07;;;11.87;;
6197;SDS011;3132;42.622;23.328;2024-03-23T03:15:45;12.13;;;11.33;;
6197;SDS011;3132;42.622;23.328;2024-03-23T03:18:10;13.03;;;11.97;;
6197;SDS011;3132;42.622;23.328;2024-03-23T03:20:39;13.17;;;12.03;;
6197;SDS011;3132;42.622;23.328;2024-03-23T03:23:05;15.40;;;14.07;;
6197;SDS011;3132;42.622;23.328;2024-03-23T03:25:30;15.67;;;14.33;;
6197;SDS011;3132;42.622;23.328;2024-03-23T03:27:56;15.97;;;14.63;;
6197;SDS011;3132;42.622;23.328;2024-03-23T03:30:21;15.43;;;14.10;;
6197;SDS011;3132;42.622;23.328;2024-03-23T03:32:46;11.40;;;10.60;;
6197;SDS011;3132;42.622;23.328;2024-03-23T03:35:12;12.00;;;11.30;;
6197;SDS011;3132;42.622;23.328;2024-03-23T03:37:37;11.50;;;10.70;;
6197;SDS011;3132;42.622;23.328;2024-03-23T03:40:02;11.47;;;10.80;;
6197;SDS011;3132;42.622;23.328;2024-03-23T03:42:28;10.43;;;9.93;;
6197;SDS011;3132;42.622;23.328;2024-03-23T03:44:54;11.23;;;10.53;;
6197;SDS011;3132;42.622;23.328;2024-03-23T03:47:19;11.53;;;10.60;;
6197;SDS011;3132;42.622;23.328;2024-03-23T03:49:44;11.67;;;10.47;;
6197;SDS011;3132;42.622;23.328;2024-03-23T03:52:10;11.13;;;10.33;;
6197;SDS011;3132;42.622;23.328;2024-03-23T03:54:36;11.10;;;10.40;;
6197;SDS011;3132;42.622;23.328;2024-03-23T03:57:01;12.67;;;11.63;;
6197;SDS011;3132;42.622;23.328;2024-03-23T03:59:27;12.17;;;11.47;;
6197;SDS011;3132;42.622;23.328;2024-03-23T04:01:52;11.33;;;10.70;;
6197;SDS011;3132;42.622;23.328;2024-03-23T04:04:17;10.50;;;9.57;;
6197;SDS011;3132;42.622;23.328;2024-03-23T04:06:43;11.50;;;10.80;;
6197;SDS011;3132;42.622;23.328;2024-03-23T04:09:09;10.60;;;10.00;;
6197;SDS011;3132;42.622;23.328;2024-03-23T04:11:35;11.10;;;10.50;;
6197;SDS011;3132;42.622;23.328;2024-03-23T04:14:00;10.63;;;9.77;;
6197;SDS011;3132;42.622;23.328;2024-03-23T04:16:30;10.90;;;10.10;;
6197;SDS011;3132;42.622;23.328;2024-03-23T04:18:59;10.53;;;9.90;;
6197;SDS011;3132;42.622;23.328;2024-03-23T04:21:24;10.60;;;10.00;;
6197;SDS011;3132;42.622;23.328;2024-03-23T04:23:49;11.13;;;10.40;;
6197;SDS011;3132;42.622;23.328;2024-03-23T04:26:15;11.43;;;10.83;;
6197;SDS011;3132;42.622;23.328;2024-03-23T04:28:40;11.30;;;10.60;;
6197;SDS011;3132;42.622;23.328;2024-03-23T04:31:05;10.23;;;9.67;;
6197;SDS011;3132;42.622;23.328;2024-03-23T04:33:31;12.10;;;11.40;;
6197;SDS011;3132;42.622;23.328;2024-03-23T04:35:56;10.90;;;10.30;;
6197;SDS011;3132;42.622;23.328;2024-03-23T04:38:22;11.97;;;11.13;;
6197;SDS011;3132;42.622;23.328;2024-03-23T04:40:54;13.23;;;12.23;;
6197;SDS011;3132;42.622;23.328;2024-03-23T04:43:22;13.73;;;12.63;;
6197;SDS011;3132;42.622;23.328;2024-03-23T04:45:48;14.90;;;12.47;;
6197;SDS011;3132;42.622;23.328;2024-03-23T04:48:14;15.10;;;13.57;;
6197;SDS011;3132;42.622;23.328;2024-03-23T04:50:39;15.87;;;13.73;;
6197;SDS011;3132;42.622;23.328;2024-03-23T04:53:05;14.37;;;13.00;;
6197;SDS011;3132;42.622;23.328;2024-03-23T04:55:31;14.20;;;12.90;;
6197;SDS011;3132;42.622;23.328;2024-03-23T04:57:56;13.53;;;12.37;;
6197;SDS011;3132;42.622;23.328;2024-03-23T05:00:22;13.73;;;12.33;;
6197;SDS011;3132;42.622;23.328;2024-03-23T05:02:48;12.10;;;10.83;;
6197;SDS011;3132;42.622;23.328;2024-03-23T05:05:13;11.93;;;11.13;;
6197;SDS011;3132;42.622;23.328;2024-03-23T05:07:39;11.50;;;10.80;;
6197;SDS011;3132;42.622;23.328;2024-03-23T05:10:04;12.10;;;11.27;;
6197;SDS011;3132;42.622;23.328;2024-03-23T05:12:30;12.70;;;11.67;;
6197;SDS011;3132;42.622;23.328;2024-03-23T05:14:56;12.13;;;11.13;;
6197;SDS011;3132;42.622;23.328;2024-03-23T05:17:21;13.77;;;12.77;;
6197;SDS011;3132;42.622;23.328;2024-03-23T05:19:47;12.93;;;11.83;;
6197;SDS011;3132;42.622;23.328;2024-03-23T05:22:12;13.73;;;12.47;;
6197;SDS011;3132;42.622;23.328;2024-03-23T05:24:37;12.73;;;11.73;;
6197;SDS011;3132;42.622;23.328;2024-03-23T05:27:03;13.83;;;12.63;;
6197;SDS011;3132;42.622;23.328;2024-03-23T05:29:28;14.77;;;13.23;;
6197;SDS011;3132;42.622;23.328;2024-03-23T05:31:54;13.53;;;12.30;;
6197;SDS011;3132;42.622;23.328;2024-03-23T05:34:22;13.40;;;12.30;;
6197;SDS011;3132;42.622;23.328;2024-03-23T05:36:47;14.90;;;13.37;;
6197;SDS011;3132;42.622;23.328;2024-03-23T05:39:14;16.77;;;13.07;;
6197;SDS011;3132;42.622;23.328;2024-03-23T05:41:41;18.03;;;16.33;;
6197;SDS011;3132;42.622;23.328;2024-03-23T05:44:07;20.80;;;17.23;;
6197;SDS011;3132;42.622;23.328;2024-03-23T05:46:32;24.07;;;16.80;;
6197;SDS011;3132;42.622;23.328;2024-03-23T05:48:58;20.53;;;16.30;;
6197;SDS011;3132;42.622;23.328;2024-03-23T05:51:26;22.27;;;18.77;;
6197;SDS011;3132;42.622;23.328;2024-03-23T05:53:52;21.40;;;17.63;;
6197;SDS011;3132;42.622;23.328;2024-03-23T05:56:19;25.50;;;20.37;;
6197;SDS011;3132;42.622;23.328;2024-03-23T05:58:45;22.77;;;19.60;;
6197;SDS011;3132;42.622;23.328;2024-03-23T06:01:11;22.73;;;19.93;;
6197;SDS011;3132;42.622;23.328;2024-03-23T06:03:37;27.57;;;19.13;;
6197;SDS011;3132;42.622;23.328;2024-03-23T06:06:03;24.10;;;19.63;;
6197;SDS011;3132;42.622;23.328;2024-03-23T06:08:29;30.50;;;19.67;;
6197;SDS011;3132;42.622;23.328;2024-03-23T06:10:55;28.80;;;20.13;;
6197;SDS011;3132;42.622;23.328;2024-03-23T06:13:20;21.27;;;18.90;;
6197;SDS011;3132;42.622;23.328;2024-03-23T06:15:49;20.93;;;18.30;;
6197;SDS011;3132;42.622;23.328;2024-03-23T06:18:15;19.00;;;17.00;;
6197;SDS011;3132;42.622;23.328;2024-03-23T06:20:40;23.30;;;17.97;;
6197;SDS011;3132;42.622;23.328;2024-03-23T06:23:06;18.53;;;16.03;;
6197;SDS011;3132;42.622;23.328;2024-03-23T06:25:31;20.07;;;16.30;;
6197;SDS011;3132;42.622;23.328;2024-03-23T06:27:57;25.00;;;17.63;;
6197;SDS011;3132;42.622;23.328;2024-03-23T06:30:27;25.37;;;16.10;;
6197;SDS011;3132;42.622;23.328;2024-03-23T06:32:52;23.93;;;16.00;;
6197;SDS011;3132;42.622;23.328;2024-03-23T06:35:18;21.13;;;16.67;;
6197;SDS011;3132;42.622;23.328;2024-03-23T06:37:43;26.37;;;16.50;;
6197;SDS011;3132;42.622;23.328;2024-03-23T06:40:11;19.20;;;17.27;;
6197;SDS011;3132;42.622;23.328;2024-03-23T06:42:36;19.43;;;15.87;;
6197;SDS011;3132;42.622;23.328;2024-03-23T06:45:02;21.30;;;16.53;;
6197;SDS011;3132;42.622;23.328;2024-03-23T06:47:29;20.47;;;16.97;;
6197;SDS011;3132;42.622;23.328;2024-03-23T06:49:55;18.57;;;16.67;;
6197;SDS011;3132;42.622;23.328;2024-03-23T06:52:20;25.37;;;17.70;;
6197;SDS011;3132;42.622;23.328;2024-03-23T06:54:45;18.13;;;16.23;;
6197;SDS011;3132;42.622;23.328;2024-03-23T06:57:11;22.07;;;16.73;;
6197;SDS011;3132;42.622;23.328;2024-03-23T06:59:37;17.97;;;15.43;;
6197;SDS011;3132;42.622;23.328;2024-03-23T07:02:03;19.93;;;15.93;;
6197;SDS011;3132;42.622;23.328;2024-03-23T07:04:29;19.70;;;17.17;;
6197;SDS011;3132;42.622;23.328;2024-03-23T07:06:54;18.00;;;16.17;;
6197;SDS011;3132;42.622;23.328;2024-03-23T07:09:20;16.63;;;14.90;;
6197;SDS011;3132;42.622;23.328;2024-03-23T07:11:50;17.07;;;15.13;;
6197;SDS011;3132;42.622;23.328;2024-03-23T07:14:15;17.63;;;15.80;;
6197;SDS011;3132;42.622;23.328;2024-03-23T07:16:40;19.07;;;15.40;;
6197;SDS011;3132;42.622;23.328;2024-03-23T07:19:06;20.70;;;16.57;;
6197;SDS011;3132;42.622;23.328;2024-03-23T07:21:31;17.93;;;16.17;;
6197;SDS011;3132;42.622;23.328;2024-03-23T07:23:56;19.33;;;17.43;;
6197;SDS011;3132;42.622;23.328;2024-03-23T07:26:22;18.37;;;16.57;;
6197;SDS011;3132;42.622;23.328;2024-03-23T07:28:47;19.63;;;17.50;;
6197;SDS011;3132;42.622;23.328;2024-03-23T07:31:14;19.13;;;16.07;;
6197;SDS011;3132;42.622;23.328;2024-03-23T07:33:46;20.27;;;16.87;;
6197;SDS011;3132;42.622;23.328;2024-03-23T07:36:13;18.70;;;16.20;;
6197;SDS011;3132;42.622;23.328;2024-03-23T07:38:42;24.27;;;17.17;;
6197;SDS011;3132;42.622;23.328;2024-03-23T07:41:10;24.53;;;17.33;;
6197;SDS011;3132;42.622;23.328;2024-03-23T07:43:37;19.73;;;17.73;;
6197;SDS011;3132;42.622;23.328;2024-03-23T07:46:03;21.20;;;17.47;;
6197;SDS011;3132;42.622;23.328;2024-03-23T07:48:29;18.63;;;15.57;;
6197;SDS011;3132;42.622;23.328;2024-03-23T07:53:28;23.30;;;15.07;;
6197;SDS011;3132;42.622;23.328;2024-03-23T07:56:15;18.33;;;16.27;;
6197;SDS011;3132;42.622;23.328;2024-03-23T07:58:40;19.27;;;16.57;;
6197;SDS011;3132;42.622;23.328;2024-03-23T08:01:07;22.97;;;16.23;;
6197;SDS011;3132;42.622;23.328;2024-03-23T08:03:36;22.30;;;16.60;;
6197;SDS011;3132;42.622;23.328;2024-03-23T08:06:13;20.70;;;16.73;;
6197;SDS011;3132;42.622;23.328;2024-03-23T08:08:40;19.50;;;16.63;;
6197;SDS011;3132;42.622;23.328;2024-03-23T08:11:06;19.53;;;15.90;;
6197;SDS011;3132;42.622;23.328;2024-03-23T08:13:33;18.13;;;16.17;;
6197;SDS011;3132;42.622;23.328;2024-03-23T08:15:59;18.47;;;16.50;;
6197;SDS011;3132;42.622;23.328;2024-03-23T08:18:26;22.67;;;16.50;;
6197;SDS011;3132;42.622;23.328;2024-03-23T08:21:02;23.57;;;18.23;;
6197;SDS011;3132;42.622;23.328;2024-03-23T08:23:31;24.20;;;17.20;;
6197;SDS011;3132;42.622;23.328;2024-03-23T08:25:59;18.17;;;16.43;;
6197;SDS011;3132;42.622;23.328;2024-03-23T08:28:25;24.80;;;16.63;;
6197;SDS011;3132;42.622;23.328;2024-03-23T08:30:52;24.87;;;16.23;;
6197;SDS011;3132;42.622;23.328;2024-03-23T08:33:18;19.30;;;17.27;;
6197;SDS011;3132;42.622;23.328;2024-03-23T08:35:52;17.73;;;16.00;;
6197;SDS011;3132;42.622;23.328;2024-03-23T08:38:24;19.63;;;17.53;;
6197;SDS011;3132;42.622;23.328;2024-03-23T08:40:57;21.13;;;16.93;;
6197;SDS011;3132;42.622;23.328;2024-03-23T08:43:22;19.40;;;17.03;;
6197;SDS011;3132;42.622;23.328;2024-03-23T08:45:48;25.20;;;16.00;;
6197;SDS011;3132;42.622;23.328;2024-03-23T08:48:13;21.83;;;15.27;;
6197;SDS011;3132;42.622;23.328;2024-03-23T08:50:39;24.83;;;15.77;;
6197;SDS011;3132;42.622;23.328;2024-03-23T08:53:04;16.50;;;14.63;;
6197;SDS011;3132;42.622;23.328;2024-03-23T08:55:29;22.70;;;15.60;;
6197;SDS011;3132;42.622;23.328;2024-03-23T08:57:55;23.90;;;16.60;;
6197;SDS011;3132;42.622;23.328;2024-03-23T09:00:21;18.40;;;16.70;;
6197;SDS011;3132;42.622;23.328;2024-03-23T09:02:50;17.20;;;15.70;;
6197;SDS011;3132;42.622;23.328;2024-03-23T09:05:15;16.77;;;15.17;;
6197;SDS011;3132;42.622;23.328;2024-03-23T09:07:40;17.30;;;15.53;;
6197;SDS011;3132;42.622;23.328;2024-03-23T09:10:06;17.67;;;14.90;;
6197;SDS011;3132;42.622;23.328;2024-03-23T09:12:32;17.57;;;15.73;;
6197;SDS011;3132;42.622;23.328;2024-03-23T09:14:58;16.67;;;15.03;;
6197;SDS011;3132;42.622;23.328;2024-03-23T09:17:23;16.80;;;15.10;;
6197;SDS011;3132;42.622;23.328;2024-03-23T09:19:48;15.87;;;14.33;;
6197;SDS011;3132;42.622;23.328;2024-03-23T09:22:14;20.27;;;16.40;;
6197;SDS011;3132;42.622;23.328;2024-03-23T09:24:39;18.97;;;15.60;;
6197;SDS011;3132;42.622;23.328;2024-03-23T09:27:05;20.90;;;15.70;;
6197;SDS011;3132;42.622;23.328;2024-03-23T09:29:30;17.00;;;15.20;;
6197;SDS011;3132;42.622;23.328;2024-03-23T09:31:56;21.03;;;15.57;;
6197;SDS011;3132;42.622;23.328;2024-03-23T09:34:21;18.77;;;14.87;;
6197;SDS011;3132;42.622;23.328;2024-03-23T09:36:46;17.47;;;15.67;;
6197;SDS011;3132;42.622;23.328;2024-03-23T09:39:12;15.57;;;14.10;;
6197;SDS011;3132;42.622;23.328;2024-03-23T09:41:38;21.87;;;16.37;;
6197;SDS011;3132;42.622;23.328;2024-03-23T09:44:04;19.80;;;16.73;;
6197;SDS011;3132;42.622;23.328;2024-03-23T09:46:30;20.77;;;15.67;;
6197;SDS011;3132;42.622;23.328;2024-03-23T09:48:59;15.90;;;14.30;;
6197;SDS011;3132;42.622;23.328;2024-03-23T09:51:24;16.43;;;14.93;;
6197;SDS011;3132;42.622;23.328;2024-03-23T09:53:50;20.33;;;14.33;;
6197;SDS011;3132;42.622;23.328;2024-03-23T09:56:17;17.27;;;13.90;;
6197;SDS011;3132;42.622;23.328;2024-03-23T09:58:42;16.53;;;14.97;;
6197;SDS011;3132;42.622;23.328;2024-03-23T10:01:08;15.13;;;13.70;;
6197;SDS011;3132;42.622;23.328;2024-03-23T10:03:42;13.90;;;12.40;;
6197;SDS011;3132;42.622;23.328;2024-03-23T10:06:10;16.60;;;14.53;;
6197;SDS011;3132;42.622;23.328;2024-03-23T10:08:36;14.30;;;12.70;;
6197;SDS011;3132;42.622;23.328;2024-03-23T10:11:22;14.80;;;13.37;;
6197;SDS011;3132;42.622;23.328;2024-03-23T10:13:47;18.00;;;14.07;;
6197;SDS011;3132;42.622;23.328;2024-03-23T10:16:20;15.10;;;13.60;;
6197;SDS011;3132;42.622;23.328;2024-03-23T10:18:47;15.70;;;14.07;;
6197;SDS011;3132;42.622;23.328;2024-03-23T10:21:14;16.27;;;13.83;;
6197;SDS011;3132;42.622;23.328;2024-03-23T10:23:43;18.33;;;15.00;;
6197;SDS011;3132;42.622;23.328;2024-03-23T10:26:12;17.90;;;14.43;;
6197;SDS011;3132;42.622;23.328;2024-03-23T10:31:17;19.17;;;14.80;;
6197;SDS011;3132;42.622;23.328;2024-03-23T10:33:44;17.10;;;15.60;;
6197;SDS011;3132;42.622;23.328;2024-03-23T10:36:11;21.67;;;14.30;;
6197;SDS011;3132;42.622;23.328;2024-03-23T10:38:37;20.00;;;15.00;;
6197;SDS011;3132;42.622;23.328;2024-03-23T10:41:04;17.73;;;13.83;;
6197;SDS011;3132;42.622;23.328;2024-03-23T10:43:30;16.43;;;14.93;;
6197;SDS011;3132;42.622;23.328;2024-03-23T10:45:58;16.57;;;15.00;;
6197;SDS011;3132;42.622;23.328;2024-03-23T10:48:23;18.67;;;15.10;;
6197;SDS011;3132;42.622;23.328;2024-03-23T10:50:49;15.47;;;14.07;;
6197;SDS011;3132;42.622;23.328;2024-03-23T10:53:14;20.07;;;15.67;;
6197;SDS011;3132;42.622;23.328;2024-03-23T10:55:42;22.50;;;15.60;;
6197;SDS011;3132;42.622;23.328;2024-03-23T10:58:08;15.27;;;13.70;;
6197;SDS011;3132;42.622;23.328;2024-03-23T11:00:37;17.73;;;14.53;;
6197;SDS011;3132;42.622;23.328;2024-03-23T11:05:57;14.87;;;13.57;;
6197;SDS011;3132;42.622;23.328;2024-03-23T11:08:32;15.13;;;13.60;;
6197;SDS011;3132;42.622;23.328;2024-03-23T11:11:13;17.60;;;14.13;;
6197;SDS011;3132;42.622;23.328;2024-03-23T11:13:38;19.53;;;13.47;;
6197;SDS011;3132;42.622;23.328;2024-03-23T11:16:13;15.73;;;13.87;;
6197;SDS011;3132;42.622;23.328;2024-03-23T11:18:39;16.13;;;14.40;;
6197;SDS011;3132;42.622;23.328;2024-03-23T11:21:06;15.57;;;14.07;;
6197;SDS011;3132;42.622;23.328;2024-03-23T11:23:32;15.40;;;13.67;;
6197;SDS011;3132;42.622;23.328;2024-03-23T11:25:57;15.73;;;14.27;;
6197;SDS011;3132;42.622;23.328;2024-03-23T11:28:22;18.63;;;14.40;;
6197;SDS011;3132;42.622;23.328;2024-03-23T11:30:48;15.73;;;14.10;;
6197;SDS011;3132;42.622;23.328;2024-03-23T11:33:13;16.87;;;15.13;;
6197;SDS011;3132;42.622;23.328;2024-03-23T11:35:39;15.23;;;13.83;;
6197;SDS011;3132;42.622;23.328;2024-03-23T11:40:36;16.07;;;14.43;;
6197;SDS011;3132;42.622;23.328;2024-03-23T11:43:03;19.63;;;13.00;;
6197;SDS011;3132;42.622;23.328;2024-03-23T11:45:33;24.30;;;14.77;;
6197;SDS011;3132;42.622;23.328;2024-03-23T11:50:28;16.63;;;14.73;;
6197;SDS011;3132;42.622;23.328;2024-03-23T11:53:05;14.23;;;12.87;;
6197;SDS011;3132;42.622;23.328;2024-03-23T11:58:22;15.30;;;13.80;;
6197;SDS011;3132;42.622;23.328;2024-03-23T12:00:49;14.23;;;12.93;;
6197;SDS011;3132;42.622;23.328;2024-03-23T12:03:16;14.23;;;12.90;;
6197;SDS011;3132;42.622;23.328;2024-03-23T12:05:46;17.83;;;12.80;;
6197;SDS011;3132;42.622;23.328;2024-03-23T12:08:20;27.03;;;21.80;;
6197;SDS011;3132;42.622;23.328;2024-03-23T12:11:08;13.63;;;12.23;;
6197;SDS011;3132;42.622;23.328;2024-03-23T12:13:42;14.10;;;11.83;;
6197;SDS011;3132;42.622;23.328;2024-03-23T12:16:11;11.83;;;10.73;;
6197;SDS011;3132;42.622;23.328;2024-03-23T12:18:41;12.13;;;11.13;;
6197;SDS011;3132;42.622;23.328;2024-03-23T12:21:07;12.87;;;11.73;;
6197;SDS011;3132;42.622;23.328;2024-03-23T12:23:33;14.67;;;11.10;;
6197;SDS011;3132;42.622;23.328;2024-03-23T12:25:59;14.67;;;12.70;;
6197;SDS011;3132;42.622;23.328;2024-03-23T12:28:25;12.33;;;10.60;;
6197;SDS011;3132;42.622;23.328;2024-03-23T12:30:51;12.77;;;11.77;;
6197;SDS011;3132;42.622;23.328;2024-03-23T12:33:17;12.30;;;11.20;;
6197;SDS011;3132;42.622;23.328;2024-03-23T12:35:42;12.23;;;11.27;;
6197;SDS011;3132;42.622;23.328;2024-03-23T12:38:08;12.90;;;11.90;;
6197;SDS011;3132;42.622;23.328;2024-03-23T12:40:33;13.47;;;12.33;;
6197;SDS011;3132;42.622;23.328;2024-03-23T12:42:58;11.57;;;10.53;;
6197;SDS011;3132;42.622;23.328;2024-03-23T12:45:24;13.23;;;11.90;;
6197;SDS011;3132;42.622;23.328;2024-03-23T12:47:49;12.30;;;11.30;;
6197;SDS011;3132;42.622;23.328;2024-03-23T12:50:17;13.50;;;12.37;;
6197;SDS011;3132;42.622;23.328;2024-03-23T12:52:43;13.33;;;12.27;;
6197;SDS011;3132;42.622;23.328;2024-03-23T12:55:08;12.17;;;11.13;;
6197;SDS011;3132;42.622;23.328;2024-03-23T12:57:33;14.33;;;12.87;;
6197;SDS011;3132;42.622;23.328;2024-03-23T12:59:59;13.43;;;12.33;;
6197;SDS011;3132;42.622;23.328;2024-03-23T13:02:25;11.20;;;10.40;;
6197;SDS011;3132;42.622;23.328;2024-03-23T13:04:51;12.30;;;11.10;;
6197;SDS011;3132;42.622;23.328;2024-03-23T13:07:20;12.30;;;11.23;;
6197;SDS011;3132;42.622;23.328;2024-03-23T13:09:46;10.63;;;9.80;;
6197;SDS011;3132;42.622;23.328;2024-03-23T13:12:12;10.03;;;9.33;;
6197;SDS011;3132;42.622;23.328;2024-03-23T13:14:38;10.13;;;9.40;;
6197;SDS011;3132;42.622;23.328;2024-03-23T13:17:04;9.53;;;8.93;;
6197;SDS011;3132;42.622;23.328;2024-03-23T13:19:29;10.67;;;10.07;;
6197;SDS011;3132;42.622;23.328;2024-03-23T13:21:56;9.70;;;9.07;;
6197;SDS011;3132;42.622;23.328;2024-03-23T13:24:23;10.13;;;9.50;;
6197;SDS011;3132;42.622;23.328;2024-03-23T13:26:49;10.57;;;9.83;;
6197;SDS011;3132;42.622;23.328;2024-03-23T13:29:16;10.43;;;9.73;;
6197;SDS011;3132;42.622;23.328;2024-03-23T13:31:42;11.37;;;10.47;;
6197;SDS011;3132;42.622;23.328;2024-03-23T13:34:07;11.23;;;10.63;;
6197;SDS011;3132;42.622;23.328;2024-03-23T13:36:32;12.33;;;10.17;;
6197;SDS011;3132;42.622;23.328;2024-03-23T13:38:57;9.37;;;8.77;;
6197;SDS011;3132;42.622;23.328;2024-03-23T13:41:23;8.27;;;7.87;;
6197;SDS011;3132;42.622;23.328;2024-03-23T13:43:49;8.07;;;7.77;;
6197;SDS011;3132;42.622;23.328;2024-03-23T13:46:14;8.57;;;8.17;;
6197;SDS011;3132;42.622;23.328;2024-03-23T13:48:40;9.47;;;8.83;;
6197;SDS011;3132;42.622;23.328;2024-03-23T13:51:07;7.67;;;7.27;;
6197;SDS011;3132;42.622;23.328;2024-03-23T13:53:32;9.93;;;9.23;;
6197;SDS011;3132;42.622;23.328;2024-03-23T13:55:58;9.43;;;8.93;;
6197;SDS011;3132;42.622;23.328;2024-03-23T13:58:23;8.40;;;8.00;;
6197;SDS011;3132;42.622;23.328;2024-03-23T14:00:50;8.57;;;8.20;;
6197;SDS011;3132;42.622;23.328;2024-03-23T14:03:16;9.40;;;8.83;;
6197;SDS011;3132;42.622;23.328;2024-03-23T14:05:42;9.47;;;8.90;;
6197;SDS011;3132;42.622;23.328;2024-03-23T14:08:07;8.37;;;8.03;;
6197;SDS011;3132;42.622;23.328;2024-03-23T14:10:34;7.97;;;7.57;;
6197;SDS011;3132;42.622;23.328;2024-03-23T14:13:00;8.70;;;8.27;;
6197;SDS011;3132;42.622;23.328;2024-03-23T14:15:26;8.10;;;7.80;;
6197;SDS011;3132;42.622;23.328;2024-03-23T14:17:52;8.07;;;7.67;;
6197;SDS011;3132;42.622;23.328;2024-03-23T14:20:17;8.27;;;7.87;;
6197;SDS011;3132;42.622;23.328;2024-03-23T14:22:43;8.73;;;8.33;;
6197;SDS011;3132;42.622;23.328;2024-03-23T14:25:09;8.07;;;7.47;;
6197;SDS011;3132;42.622;23.328;2024-03-23T14:27:35;8.47;;;7.97;;
6197;SDS011;3132;42.622;23.328;2024-03-23T14:30:03;8.13;;;7.73;;
6197;SDS011;3132;42.622;23.328;2024-03-23T14:32:30;8.07;;;7.70;;
6197;SDS011;3132;42.622;23.328;2024-03-23T14:34:59;8.87;;;8.37;;
6197;SDS011;3132;42.622;23.328;2024-03-23T14:37:27;9.07;;;8.57;;
6197;SDS011;3132;42.622;23.328;2024-03-23T14:39:55;9.47;;;9.07;;
6197;SDS011;3132;42.622;23.328;2024-03-23T14:42:21;8.77;;;8.27;;
6197;SDS011;3132;42.622;23.328;2024-03-23T14:44:46;9.20;;;8.60;;
6197;SDS011;3132;42.622;23.328;2024-03-23T14:47:12;8.87;;;8.30;;
6197;SDS011;3132;42.622;23.328;2024-03-23T14:49:37;8.83;;;8.40;;
6197;SDS011;3132;42.622;23.328;2024-03-23T14:52:03;7.73;;;7.43;;
6197;SDS011;3132;42.622;23.328;2024-03-23T14:54:28;8.13;;;7.73;;
6197;SDS011;3132;42.622;23.328;2024-03-23T14:56:54;8.23;;;7.80;;
6197;SDS011;3132;42.622;23.328;2024-03-23T14:59:21;8.67;;;8.37;;
6197;SDS011;3132;42.622;23.328;2024-03-23T15:01:46;8.73;;;8.33;;
6197;SDS011;3132;42.622;23.328;2024-03-23T15:04:11;8.00;;;7.70;;
6197;SDS011;3132;42.622;23.328;2024-03-23T15:06:37;9.03;;;8.37;;
6197;SDS011;3132;42.622;23.328;2024-03-23T15:09:02;9.30;;;8.90;;
6197;SDS011;3132;42.622;23.328;2024-03-23T15:11:32;9.67;;;8.97;;
6197;SDS011;3132;42.622;23.328;2024-03-23T15:13:58;8.37;;;7.87;;
6197;SDS011;3132;42.622;23.328;2024-03-23T15:16:23;9.00;;;8.63;;
6197;SDS011;3132;42.622;23.328;2024-03-23T15:18:48;8.67;;;8.23;;
6197;SDS011;3132;42.622;23.328;2024-03-23T15:21:14;9.87;;;9.27;;
6197;SDS011;3132;42.622;23.328;2024-03-23T15:23:44;10.17;;;9.37;;
6197;SDS011;3132;42.622;23.328;2024-03-23T15:26:10;9.17;;;8.37;;
6197;SDS011;3132;42.622;23.328;2024-03-23T15:28:35;9.47;;;8.97;;
6197;SDS011;3132;42.622;23.328;2024-03-23T15:31:09;11.00;;;10.30;;
6197;SDS011;3132;42.622;23.328;2024-03-23T15:33:35;10.63;;;9.97;;
6197;SDS011;3132;42.622;23.328;2024-03-23T15:36:01;9.57;;;9.10;;
6197;SDS011;3132;42.622;23.328;2024-03-23T15:38:28;10.80;;;10.20;;
6197;SDS011;3132;42.622;23.328;2024-03-23T15:40:57;8.97;;;8.50;;
6197;SDS011;3132;42.622;23.328;2024-03-23T15:43:23;9.53;;;8.77;;
6197;SDS011;3132;42.622;23.328;2024-03-23T15:45:55;9.23;;;8.73;;